createdAt,value
2023-02-18T00:01:37.987Z,2.87
2023-02-18T00:04:09.318Z,2.93
2023-02-18T00:06:39.114Z,2.80
2023-02-18T00:09:09.489Z,3.17
2023-02-18T00:11:39.251Z,3.73
2023-02-18T00:14:10.790Z,3.47
2023-02-18T00:16:38.980Z,4.10
2023-02-18T00:19:12.813Z,3.87
2023-02-18T00:21:40.964Z,3.80
2023-02-18T00:24:09.473Z,4.20
2023-02-18T00:26:38.316Z,3.50
2023-02-18T00:29:06.370Z,3.73
2023-02-18T00:31:37.301Z,3.73
2023-02-18T00:34:07.840Z,3.83
2023-02-18T00:36:37.482Z,2.90
2023-02-18T00:39:08.078Z,3.17
2023-02-18T00:41:37.166Z,3.67
2023-02-18T00:44:05.817Z,3.80
2023-02-18T00:46:35.072Z,4.10
2023-02-18T00:49:03.371Z,4.70
2023-02-18T00:51:31.673Z,4.70
2023-02-18T00:54:01.759Z,4.10
2023-02-18T00:56:30.186Z,4.30
2023-02-18T00:58:58.048Z,4.83
2023-02-18T01:01:27.886Z,5.33
2023-02-18T01:03:56.124Z,3.90
2023-02-18T01:06:24.746Z,3.57
2023-02-18T01:08:53.268Z,3.50
2023-02-18T01:11:23.632Z,3.37
2023-02-18T01:13:51.925Z,3.00
2023-02-18T01:16:20.409Z,3.60
2023-02-18T01:18:48.675Z,3.90
2023-02-18T01:21:17.326Z,3.83
2023-02-18T01:23:45.775Z,4.10
2023-02-18T01:26:13.789Z,3.77
2023-02-18T01:28:42.960Z,4.30
2023-02-18T01:31:13.650Z,4.80
2023-02-18T01:33:41.992Z,4.50
2023-02-18T01:36:11.454Z,4.80
2023-02-18T01:38:40.569Z,6.07
2023-02-18T01:41:08.813Z,6.30
2023-02-18T01:43:37.278Z,5.80
2023-02-18T01:46:19.528Z,5.17
2023-02-18T01:48:52.830Z,5.80
2023-02-18T01:51:25.347Z,5.50
2023-02-18T01:53:57.473Z,6.83
2023-02-18T01:56:30.327Z,5.60
2023-02-18T01:59:02.662Z,6.13
2023-02-18T02:01:34.028Z,5.90
2023-02-18T02:04:02.173Z,5.80
2023-02-18T02:06:30.184Z,6.23
2023-02-18T02:09:06.868Z,7.03
2023-02-18T02:11:50.004Z,6.93
2023-02-18T02:14:29.891Z,7.00
2023-02-18T02:17:05.825Z,6.83
2023-02-18T02:20:22.647Z,7.60
2023-02-18T02:23:46.793Z,6.57
2023-02-18T02:26:46.357Z,7.57
2023-02-18T02:29:49.886Z,6.60
2023-02-18T02:32:59.118Z,6.80
2023-02-18T02:35:32.217Z,6.57
2023-02-18T02:38:06.567Z,6.30
2023-02-18T02:40:45.948Z,6.00
2023-02-18T02:43:22.435Z,5.80
2023-02-18T02:45:57.265Z,6.10
2023-02-18T02:48:34.328Z,4.90
2023-02-18T02:51:10.213Z,4.97
2023-02-18T02:53:41.584Z,5.00
2023-02-18T02:56:15.099Z,5.00
2023-02-18T02:58:44.692Z,4.80
2023-02-18T03:01:32.304Z,4.87
2023-02-18T03:04:26.615Z,5.10
2023-02-18T03:07:12.438Z,5.50
2023-02-18T03:09:52.110Z,4.80
2023-02-18T03:12:29.014Z,5.33
2023-02-18T03:15:04.036Z,5.77
2023-02-18T03:17:37.416Z,4.60
2023-02-18T03:20:12.100Z,5.47
2023-02-18T03:22:45.285Z,5.83
2023-02-18T03:25:16.148Z,6.90
2023-02-18T03:27:48.426Z,5.67
2023-02-18T03:30:22.953Z,6.10
2023-02-18T03:32:56.247Z,5.53
2023-02-18T03:35:25.540Z,6.17
2023-02-18T03:38:01.171Z,6.90
2023-02-18T03:40:30.826Z,6.90
2023-02-18T03:42:59.542Z,6.57
2023-02-18T03:45:28.171Z,6.37
2023-02-18T03:47:56.600Z,6.43
2023-02-18T03:50:24.680Z,5.30
2023-02-18T03:52:54.465Z,6.27
2023-02-18T03:55:22.637Z,5.63
2023-02-18T03:57:50.724Z,6.10
2023-02-18T04:00:20.990Z,5.97
2023-02-18T04:02:49.013Z,4.60
2023-02-18T04:05:17.504Z,5.53
2023-02-18T04:07:45.824Z,5.53
2023-02-18T04:10:15.143Z,5.83
2023-02-18T04:12:43.042Z,5.00
2023-02-18T04:15:11.548Z,5.30
2023-02-18T04:17:39.383Z,4.87
2023-02-18T04:20:09.116Z,5.17
2023-02-18T04:22:37.499Z,5.37
2023-02-18T04:25:05.903Z,4.27
2023-02-18T04:27:35.412Z,5.50
2023-02-18T04:30:04.361Z,4.37
2023-02-18T04:32:32.553Z,3.97
2023-02-18T04:35:00.455Z,5.13
2023-02-18T04:37:28.839Z,3.77
2023-02-18T04:39:56.958Z,3.83
2023-02-18T04:42:25.061Z,3.60
2023-02-18T04:44:55.278Z,3.07
2023-02-18T04:47:23.462Z,2.63
2023-02-18T04:49:51.470Z,2.97
2023-02-18T04:52:20.300Z,2.57
2023-02-18T04:54:48.685Z,2.93
2023-02-18T04:57:16.872Z,2.83
2023-02-18T04:59:45.648Z,2.50
2023-02-18T05:02:15.161Z,3.00
2023-02-18T05:04:43.238Z,2.77
2023-02-18T05:07:12.445Z,3.17
2023-02-18T05:09:40.720Z,4.27
2023-02-18T05:12:09.111Z,2.80
2023-02-18T05:14:37.948Z,3.20
2023-02-18T05:17:06.042Z,3.30
2023-02-18T05:19:35.521Z,2.90
2023-02-18T05:22:04.078Z,2.40
2023-02-18T05:24:32.373Z,3.30
2023-02-18T05:27:01.172Z,3.90
2023-02-18T05:29:29.171Z,2.47
2023-02-18T05:31:58.680Z,2.30
2023-02-18T05:34:27.299Z,2.53
2023-02-18T05:36:56.853Z,2.30
2023-02-18T05:39:25.258Z,2.63
2023-02-18T05:41:54.160Z,2.30
2023-02-18T05:44:34.089Z,2.07
2023-02-18T05:47:05.019Z,1.90
2023-02-18T05:49:34.583Z,1.97
2023-02-18T05:52:04.921Z,1.60
2023-02-18T05:54:33.315Z,1.70
2023-02-18T05:57:01.940Z,1.87
2023-02-18T05:59:31.316Z,2.50
2023-02-18T06:02:00.716Z,2.03
2023-02-18T06:04:28.772Z,2.17
2023-02-18T06:06:57.408Z,3.07
2023-02-18T06:09:27.585Z,2.50
2023-02-18T06:11:55.749Z,1.70
2023-02-18T06:14:24.439Z,1.73
2023-02-18T06:16:52.755Z,1.30
2023-02-18T06:19:24.365Z,1.00
2023-02-18T06:21:52.782Z,1.30
2023-02-18T06:24:21.049Z,1.40
2023-02-18T06:26:51.038Z,0.93
2023-02-18T06:29:19.105Z,1.00
2023-02-18T06:31:47.816Z,1.03
2023-02-18T06:34:16.192Z,1.10
2023-02-18T06:36:44.209Z,1.27
2023-02-18T06:39:12.631Z,1.57
2023-02-18T06:41:40.805Z,1.20
2023-02-18T06:44:11.384Z,1.40
2023-02-18T06:46:40.107Z,1.77
2023-02-18T06:49:08.374Z,1.57
2023-02-18T06:51:36.682Z,1.50
2023-02-18T06:54:06.380Z,2.20
2023-02-18T06:56:34.638Z,1.87
2023-02-18T06:59:02.734Z,2.47
2023-02-18T07:01:32.844Z,2.90
2023-02-18T07:04:01.099Z,2.13
2023-02-18T07:06:29.222Z,1.63
2023-02-18T07:08:58.000Z,2.13
2023-02-18T07:11:26.710Z,1.83
2023-02-18T07:13:54.843Z,2.20
2023-02-18T07:16:23.711Z,2.17
2023-02-18T07:18:53.234Z,2.70
2023-02-18T07:21:21.975Z,3.00
2023-02-18T07:23:50.111Z,2.60
2023-02-18T07:26:18.770Z,2.83
2023-02-18T07:28:47.001Z,2.33
2023-02-18T07:31:15.408Z,2.70
2023-02-18T07:33:43.933Z,1.87
2023-02-18T07:36:13.310Z,1.10
2023-02-18T07:38:42.127Z,1.40
2023-02-18T07:41:18.493Z,1.37
2023-02-18T07:43:46.683Z,1.23
2023-02-18T07:46:14.851Z,1.20
2023-02-18T07:48:43.405Z,1.77
2023-02-18T07:51:13.829Z,1.20
2023-02-18T07:53:42.093Z,1.40
2023-02-18T07:56:11.130Z,1.53
2023-02-18T07:58:40.277Z,1.07
2023-02-18T08:01:09.463Z,1.10
2023-02-18T08:03:39.076Z,1.20
2023-02-18T08:06:08.355Z,1.00
2023-02-18T08:08:38.113Z,0.90
2023-02-18T08:11:18.789Z,1.17
2023-02-18T08:13:48.176Z,1.37
2023-02-18T08:16:17.425Z,1.60
2023-02-18T08:18:47.930Z,1.60
2023-02-18T08:21:16.289Z,1.90
2023-02-18T08:23:46.360Z,4.07
2023-02-18T08:26:14.899Z,5.20
2023-02-18T08:28:43.685Z,6.13
2023-02-18T08:31:19.260Z,6.03
2023-02-18T08:33:47.711Z,7.17
2023-02-18T08:36:15.694Z,8.07
2023-02-18T08:38:45.516Z,9.40
2023-02-18T08:41:14.690Z,8.03
2023-02-18T08:43:43.550Z,9.90
2023-02-18T08:46:16.065Z,9.63
2023-02-18T08:48:44.952Z,8.60
2023-02-18T08:51:15.129Z,9.23
2023-02-18T08:53:43.424Z,8.80
2023-02-18T08:56:13.862Z,9.17
2023-02-18T08:58:42.609Z,9.27
2023-02-18T09:01:13.939Z,8.47
2023-02-18T09:03:42.278Z,8.80
2023-02-18T09:06:10.930Z,7.97
2023-02-18T09:08:39.617Z,8.33
2023-02-18T09:11:11.413Z,7.80
2023-02-18T09:13:41.936Z,8.20
2023-02-18T09:16:14.243Z,7.23
2023-02-18T09:18:43.016Z,7.53
2023-02-18T09:21:13.614Z,7.90
2023-02-18T09:23:42.072Z,7.60
2023-02-18T09:26:14.407Z,7.10
2023-02-18T09:28:44.841Z,6.37
2023-02-18T09:31:17.041Z,7.40
2023-02-18T09:33:48.587Z,7.70
2023-02-18T09:36:17.266Z,7.53
2023-02-18T09:38:45.673Z,7.80
2023-02-18T09:41:25.687Z,6.77
2023-02-18T09:44:00.861Z,8.27
2023-02-18T09:46:34.135Z,7.30
2023-02-18T09:49:05.573Z,8.13
2023-02-18T09:51:34.423Z,7.97
2023-02-18T09:54:02.871Z,8.57
2023-02-18T09:56:35.581Z,8.10
2023-02-18T09:59:10.095Z,8.50
2023-02-18T10:01:41.038Z,7.60
2023-02-18T10:04:16.992Z,8.00
2023-02-18T10:06:48.124Z,6.60
2023-02-18T10:09:21.971Z,7.00
2023-02-18T10:11:54.063Z,6.83
2023-02-18T10:14:23.976Z,7.03
2023-02-18T10:16:54.319Z,6.90
2023-02-18T10:19:28.047Z,7.50
2023-02-18T10:21:57.769Z,8.37
